Terminal Aerodrome Forecast
Issued by NWS

Home | Current Version | Previous Version | Text Only | Print | Product List | Glossary On
Versions: 1 2 3 4 5 6 7 8 9 10 11 12 13 14 15 16 17 18 19 20 21 22 23 24 25 26
873
FTUS43 KOAX 281743
TAFSNY
TAF
KSNY 281743Z 2818/2918 07018G25KT 3SM -SN BR BKN005 OVC015
      TEMPO 2820/2824 1SM -SN BR VV004
     FM290000 04015KT 2SM -SN BR OVC007
     FM290900 36012KT 5SM -SN BR BKN003 OVC007=

USA.gov is the U.S. government's official web portal to all federal, state and local government web resources and services.